Time;durP1;ratioP1;P1;durP2;ratioP2;P2;SDS_P1;SDS_P2;PMS_P1;PMS_P2;Temp;Humidity;BMP_temperature;BMP_pressure;BME280_temperature;BME280_humidity;BME280_pressure;Samples;Min_cycle;Max_cycle;Signal;HPM_P1;HPM_P2
2022/09/28 00:01:30;;;;;;;5.87;2.17;;;9.80;1.00;;;;;;5076665;28;20421;-90
2022/09/28 00:04:41;;;;;;;8.10;2.10;;;9.90;1.00;;;;;;5076016;28;20555;-89
2022/09/28 00:07:12;;;;;;;7.80;2.43;;;9.90;1.00;;;;;;5076744;28;20425;-80
2022/09/28 00:09:37;;;;;;;8.43;2.43;;;9.90;1.00;;;;;;5078148;28;20425;-79
2022/09/28 00:12:11;;;;;;;4.43;2.50;;;9.90;1.00;;;;;;5087089;28;20424;-79
2022/09/28 00:14:43;;;;;;;11.50;2.03;;;10.00;1.00;;;;;;5085944;28;20641;-79
2022/09/28 00:17:25;;;;;;;4.50;2.60;;;10.00;1.00;;;;;;5080162;28;20447;-79
2022/09/28 00:20:23;;;;;;;7.93;2.83;;;10.00;1.00;;;;;;5083886;28;20423;-80
2022/09/28 00:26:11;;;;;;;3.67;2.67;;;9.90;1.00;;;;;;5076476;28;20812;-91
2022/09/28 00:29:30;;;;;;;5.40;2.33;;;9.90;1.00;;;;;;5075696;28;20417;-91
2022/09/28 00:32:35;;;;;;;3.33;2.67;;;10.00;1.00;;;;;;5075092;28;20547;-91
2022/09/28 00:38:27;;;;;;;2.57;2.20;;;10.00;1.00;;;;;;5089188;28;20403;-79
2022/09/28 00:44:35;;;;;;;4.17;2.50;;;10.10;1.00;;;;;;5086339;28;20454;-79
2022/09/28 00:47:05;;;;;;;16.10;2.97;;;10.10;1.00;;;;;;5076037;28;20421;-79
2022/09/28 00:49:55;;;;;;;4.00;2.73;;;10.10;1.00;;;;;;5083729;28;20427;-79
2022/09/28 00:52:33;;;;;;;5.63;3.30;;;10.10;1.00;;;;;;5083272;28;20416;-80
2022/09/28 00:55:29;;;;;;;3.93;2.60;;;10.20;1.00;;;;;;5089216;28;20516;-80
2022/09/28 00:58:22;;;;;;;5.97;3.07;;;10.20;1.00;;;;;;5085710;28;20478;-79
2022/09/28 01:00:59;;;;;;;3.50;2.20;;;10.20;1.00;;;;;;5080909;28;20433;-79
2022/09/28 01:03:27;;;;;;;4.27;2.90;;;10.20;1.00;;;;;;5092553;28;20418;-79
2022/09/28 01:06:15;;;;;;;3.40;3.10;;;10.30;1.00;;;;;;5074435;28;20434;-79
2022/09/28 01:15:28;;;;;;;4.43;3.27;;;10.20;1.00;;;;;;5088258;28;20411;-91
2022/09/28 01:18:16;;;;;;;8.00;4.10;;;10.10;1.00;;;;;;5076638;28;20409;-91
2022/09/28 01:24:18;;;;;;;4.43;3.33;;;10.20;1.80;;;;;;5075043;28;20518;-91
2022/09/28 01:27:12;;;;;;;3.57;3.27;;;10.30;1.70;;;;;;5074116;28;20471;-91
2022/09/28 01:33:07;;;;;;;5.43;4.03;;;10.30;1.10;;;;;;5087019;28;20431;-91
2022/09/28 01:36:01;;;;;;;5.60;4.37;;;10.30;1.00;;;;;;5075290;28;20929;-91
2022/09/28 01:38:36;;;;;;;4.40;3.70;;;10.30;1.00;;;;;;5093461;28;20421;-80
2022/09/28 01:41:07;;;;;;;8.97;4.23;;;10.30;1.00;;;;;;5085842;28;20417;-79
2022/09/28 01:43:41;;;;;;;9.63;4.53;;;10.30;1.50;;;;;;5073775;28;20515;-79
2022/09/28 01:46:17;;;;;;;7.37;4.33;;;10.30;4.60;;;;;;5073893;28;20397;-80
2022/09/28 01:48:50;;;;;;;7.80;4.20;;;10.30;2.90;;;;;;5092097;28;20434;-79
2022/09/28 01:51:43;;;;;;;7.10;4.30;;;10.30;4.40;;;;;;5085991;28;20445;-80
2022/09/28 01:57:51;;;;;;;6.00;4.57;;;10.30;6.20;;;;;;5074653;28;20428;-91
2022/09/28 02:00:31;;;;;;;6.10;4.90;;;10.30;5.80;;;;;;5082427;28;20421;-91
2022/09/28 02:03:33;;;;;;;6.47;4.40;;;10.30;9.40;;;;;;5074980;28;20436;-91
2022/09/28 02:06:17;;;;;;;11.20;5.10;;;10.30;9.40;;;;;;5074031;28;20504;-91
2022/09/28 02:09:29;;;;;;;7.90;5.60;;;10.40;13.30;;;;;;5078214;28;20789;-91
2022/09/28 02:15:59;;;;;;;7.50;5.87;;;10.30;12.10;;;;;;5083786;28;20420;-90
2022/09/28 02:19:05;;;;;;;7.23;5.37;;;10.30;14.80;;;;;;5082967;28;20434;-90
2022/09/28 02:22:15;;;;;;;9.00;5.90;;;10.30;16.20;;;;;;5082114;28;20419;-91
2022/09/28 02:24:58;;;;;;;8.17;5.63;;;10.40;17.60;;;;;;5074489;28;20504;-79
2022/09/28 02:27:35;;;;;;;12.23;6.00;;;10.40;18.60;;;;;;5087443;28;20462;-79
2022/09/28 02:30:47;;;;;;;7.97;5.20;;;10.40;16.90;;;;;;5086701;28;20448;-79
2022/09/28 02:33:18;;;;;;;8.83;5.43;;;10.40;15.50;;;;;;5083210;28;20414;-80
2022/09/28 02:35:54;;;;;;;12.93;5.67;;;10.40;17.20;;;;;;5092833;28;20395;-78
2022/09/28 02:39:05;;;;;;;8.40;4.10;;;10.50;18.80;;;;;;5075089;28;20425;-90
2022/09/28 02:42:05;;;;;;;7.20;4.00;;;10.50;16.20;;;;;;5076118;28;20457;-91
2022/09/28 02:48:41;;;;;;;4.33;1.63;;;10.50;10.40;;;;;;5084200;28;20407;-91
2022/09/28 02:51:53;;;;;;;3.70;1.20;;;10.40;4.10;;;;;;5079253;28;20460;-91
2022/09/28 02:54:52;;;;;;;0.90;0.90;;;10.30;2.40;;;;;;5081219;28;20439;-80
2022/09/28 02:57:42;;;;;;;0.90;0.90;;;10.30;1.00;;;;;;5077580;28;20421;-80
2022/09/28 03:00:31;;;;;;;6.23;0.97;;;10.30;1.00;;;;;;5086639;28;20435;-79
2022/09/28 03:03:10;;;;;;;2.23;0.90;;;10.20;1.00;;;;;;5073602;28;20463;-80
2022/09/28 03:05:41;;;;;;;0.80;0.80;;;10.30;1.00;;;;;;5080805;28;20463;-78
2022/09/28 03:08:36;;;;;;;2.57;0.77;;;10.30;1.00;;;;;;5077494;28;20408;-79
2022/09/28 03:11:32;;;;;;;0.67;0.67;;;10.20;1.00;;;;;;4995967;28;20436;-78
2022/09/28 03:14:23;;;;;;;0.70;0.70;;;10.20;1.00;;;;;;5011119;28;20474;-79
2022/09/28 03:17:19;;;;;;;4.50;0.60;;;10.20;1.00;;;;;;5000572;28;20424;-80
2022/09/28 03:19:54;;;;;;;3.03;0.50;;;10.20;1.00;;;;;;5012798;28;20473;-79
2022/09/28 03:22:23;;;;;;;0.60;0.60;;;10.20;1.00;;;;;;5014611;28;20906;-79
2022/09/28 03:25:00;;;;;;;2.40;0.73;;;10.20;1.00;;;;;;5012148;28;20467;-79
2022/09/28 03:27:25;;;;;;;1.80;0.70;;;10.20;1.00;;;;;;5014807;28;20430;-79
2022/09/28 03:29:53;;;;;;;0.70;0.70;;;10.20;1.00;;;;;;5014558;28;20447;-79
2022/09/28 03:32:24;;;;;;;0.80;0.80;;;10.00;1.00;;;;;;5014650;28;20636;-79
2022/09/28 03:34:54;;;;;;;2.30;0.70;;;10.00;1.00;;;;;;5014466;28;20766;-79
2022/09/28 03:38:11;;;;;;;0.60;0.57;;;10.00;1.00;;;;;;5014642;28;20434;-79
2022/09/28 03:41:08;;;;;;;1.17;0.63;;;10.10;1.00;;;;;;5011792;28;20766;-79
2022/09/28 03:43:35;;;;;;;3.17;1.03;;;10.00;1.00;;;;;;4927188;29;20431;-79
2022/09/28 03:46:06;;;;;;;1.50;0.77;;;10.00;1.00;;;;;;4920911;29;20859;-79
2022/09/28 03:48:55;;;;;;;0.60;0.60;;;10.10;1.00;;;;;;4983219;28;20472;-79
2022/09/28 03:51:30;;;;;;;0.70;0.70;;;9.90;1.00;;;;;;4995848;28;20424;-79
2022/09/28 03:54:12;;;;;;;1.10;1.10;;;9.90;1.00;;;;;;5008618;28;20442;-80
2022/09/28 03:57:17;;;;;;;0.80;0.80;;;9.90;1.00;;;;;;5014352;28;20426;-79
2022/09/28 03:59:43;;;;;;;2.03;0.97;;;9.80;1.00;;;;;;5014152;28;20518;-79
2022/09/28 04:02:29;;;;;;;0.97;0.97;;;9.80;1.00;;;;;;4989113;28;20579;-79
2022/09/28 04:05:06;;;;;;;1.53;0.80;;;9.80;1.00;;;;;;5009819;28;20215;-79
2022/09/28 04:07:36;;;;;;;2.57;0.70;;;9.80;1.00;;;;;;4997215;28;20434;-79
2022/09/28 04:10:01;;;;;;;1.70;0.87;;;9.80;1.00;;;;;;5000821;28;20969;-79
2022/09/28 04:12:27;;;;;;;1.77;0.80;;;9.80;1.00;;;;;;4996530;28;20417;-79
2022/09/28 04:14:53;;;;;;;5.50;0.90;;;9.90;1.00;;;;;;5013947;28;20235;-79
2022/09/28 04:17:24;;;;;;;1.13;0.77;;;9.90;1.00;;;;;;5012817;28;20181;-79
2022/09/28 04:19:54;;;;;;;3.77;0.80;;;9.80;1.00;;;;;;5037524;28;20213;-79
2022/09/28 04:22:19;;;;;;;1.63;0.80;;;9.90;1.00;;;;;;5094126;28;20395;-79
2022/09/28 04:24:45;;;;;;;10.33;1.10;;;9.90;1.00;;;;;;5082665;28;20460;-79
2022/09/28 04:30:06;;;;;;;30.87;1.20;;;9.80;1.00;;;;;;5074980;28;20159;-79
2022/09/28 04:32:42;;;;;;;1.97;0.90;;;9.60;1.00;;;;;;5087495;28;20466;-80
2022/09/28 04:35:10;;;;;;;4.93;1.10;;;9.50;1.00;;;;;;5087977;28;20460;-79
2022/09/28 04:37:48;;;;;;;3.93;1.10;;;9.50;1.00;;;;;;5075350;28;20441;-79
2022/09/28 04:46:57;;;;;;;2.90;1.20;;;9.50;1.00;;;;;;5094820;28;20392;-91
2022/09/28 04:49:23;;;;;;;8.40;1.73;;;9.40;1.00;;;;;;5075804;28;20417;-91
2022/09/28 04:52:17;;;;;;;1.87;1.77;;;9.50;1.00;;;;;;5091497;28;20167;-90
2022/09/28 04:54:43;;;;;;;3.20;2.33;;;9.40;1.00;;;;;;5075902;28;20436;-91
2022/09/28 05:01:01;;;;;;;8.20;2.23;;;9.50;1.00;;;;;;5079497;28;20264;-90
2022/09/28 05:04:12;;;;;;;2.30;2.10;;;9.50;1.00;;;;;;5080073;28;20436;-90
2022/09/28 05:07:17;;;;;;;4.33;2.10;;;9.50;1.00;;;;;;5079372;28;20985;-90
2022/09/28 05:09:48;;;;;;;3.33;2.53;;;9.40;1.00;;;;;;5079833;28;20408;-79
2022/09/28 05:12:18;;;;;;;3.33;2.50;;;9.30;1.00;;;;;;5093954;28;20428;-83
2022/09/28 05:14:48;;;;;;;4.43;2.50;;;9.30;1.00;;;;;;5083420;28;20961;-81
2022/09/28 05:17:13;;;;;;;2.50;2.30;;;9.30;1.20;;;;;;5082495;28;20769;-74
2022/09/28 05:19:42;;;;;;;3.00;2.63;;;9.30;1.70;;;;;;5079028;28;20512;-76
2022/09/28 05:22:18;;;;;;;8.60;2.30;;;9.30;1.60;;;;;;5080667;28;20190;-76
2022/09/28 05:24:45;;;;;;;6.73;2.47;;;9.30;3.40;;;;;;5075660;28;20532;-76
2022/09/28 05:27:12;;;;;;;2.67;2.10;;;9.30;3.40;;;;;;5072828;28;20487;-76
2022/09/28 05:30:00;;;;;;;7.30;2.40;;;9.40;2.50;;;;;;5089086;28;20766;-76
2022/09/28 05:32:26;;;;;;;4.47;1.90;;;9.30;2.30;;;;;;5077432;28;20542;-76
2022/09/28 05:34:52;;;;;;;2.40;2.20;;;9.30;1.60;;;;;;5094608;28;20480;-76
2022/09/28 05:37:18;;;;;;;5.63;2.70;;;9.20;1.00;;;;;;5080717;28;20962;-76
2022/09/28 05:40:06;;;;;;;3.27;2.53;;;9.20;1.00;;;;;;5076610;28;20420;-80
2022/09/28 05:45:53;;;;;;;2.50;2.07;;;9.20;1.00;;;;;;5073899;28;20466;-81
2022/09/28 05:48:24;;;;;;;7.17;2.07;;;9.10;1.00;;;;;;5073659;28;20783;-82
2022/09/28 05:51:18;;;;;;;2.47;2.30;;;9.10;1.00;;;;;;5073968;28;20182;-81
2022/09/28 05:53:48;;;;;;;4.93;2.90;;;9.10;1.00;;;;;;5086382;28;20417;-82
2022/09/28 05:56:30;;;;;;;6.17;2.57;;;9.10;1.00;;;;;;5078622;28;20447;-81
2022/09/28 05:59:12;;;;;;;5.97;2.37;;;9.00;1.00;;;;;;5074052;28;20985;-81
2022/09/28 06:04:59;;;;;;;2.40;2.20;;;8.90;1.00;;;;;;5086733;28;20473;-82
2022/09/28 06:07:47;;;;;;;2.30;2.10;;;8.70;1.00;;;;;;5081339;28;20440;-81
2022/09/28 06:10:47;;;;;;;8.70;2.70;;;8.70;1.00;;;;;;5099361;28;20174;-81
2022/09/28 06:13:13;;;;;;;5.33;2.60;;;8.70;1.00;;;;;;5075748;28;20441;-83
2022/09/28 06:15:54;;;;;;;3.43;2.30;;;8.60;2.00;;;;;;5085046;28;20424;-81
2022/09/28 06:18:30;;;;;;;5.53;2.23;;;8.60;3.50;;;;;;5076842;28;20171;-80
2022/09/28 06:21:01;;;;;;;2.90;2.20;;;8.60;4.80;;;;;;5078084;28;20429;-80
2022/09/28 06:23:27;;;;;;;2.47;2.27;;;8.60;4.60;;;;;;5073478;28;20502;-79
2022/09/28 06:25:54;;;;;;;2.33;1.90;;;8.60;4.80;;;;;;5073681;28;20969;-77
2022/09/28 06:28:25;;;;;;;2.67;2.47;;;8.60;5.00;;;;;;5092671;28;20173;-76
2022/09/28 06:30:52;;;;;;;3.70;1.83;;;8.60;2.50;;;;;;5090123;28;20438;-76
2022/09/28 06:33:17;;;;;;;2.13;1.30;;;8.60;3.90;;;;;;5084943;28;20427;-76
2022/09/28 06:35:43;;;;;;;2.83;1.70;;;8.70;3.20;;;;;;5077522;28;20432;-75
2022/09/28 06:38:12;;;;;;;2.17;1.97;;;8.70;2.40;;;;;;5075916;28;20218;-75
2022/09/28 06:40:56;;;;;;;4.53;1.97;;;8.70;4.40;;;;;;5086240;28;20187;-75
2022/09/28 06:43:24;;;;;;;4.20;1.87;;;8.80;6.10;;;;;;5074408;28;20487;-76
2022/09/28 06:45:51;;;;;;;7.23;2.27;;;8.80;5.70;;;;;;5085386;28;20807;-76
2022/09/28 06:48:18;;;;;;;1.50;1.40;;;8.80;4.30;;;;;;5076366;28;20478;-76
2022/09/28 06:50:49;;;;;;;5.03;1.60;;;8.90;3.80;;;;;;5079094;28;20474;-76
2022/09/28 06:53:18;;;;;;;6.53;1.83;;;9.00;4.30;;;;;;5083107;28;20485;-76
2022/09/28 06:55:47;;;;;;;1.90;1.80;;;9.10;3.90;;;;;;5086357;28;20923;-76
2022/09/28 06:58:27;;;;;;;3.57;1.80;;;9.30;6.20;;;;;;5081112;28;20428;-75
2022/09/28 07:00:59;;;;;;;3.80;2.20;;;9.30;4.30;;;;;;5078100;28;20867;-76
2022/09/28 07:03:36;;;;;;;4.63;2.13;;;9.30;2.60;;;;;;5077972;28;20953;-80
2022/09/28 07:06:12;;;;;;;1.93;1.60;;;9.40;1.80;;;;;;5087043;28;20447;-76
2022/09/28 07:08:42;;;;;;;1.20;1.10;;;9.40;2.40;;;;;;5085220;28;20420;-75
2022/09/28 07:11:12;;;;;;;4.93;1.53;;;9.60;1.00;;;;;;5096267;28;20423;-79
2022/09/28 07:13:39;;;;;;;4.30;1.47;;;9.70;1.00;;;;;;5084975;28;20444;-79
2022/09/28 07:16:18;;;;;;;2.30;1.53;;;9.80;1.00;;;;;;5089015;28;20801;-79
2022/09/28 07:18:48;;;;;;;2.23;1.33;;;9.90;1.00;;;;;;5076551;28;20934;-79
2022/09/28 07:21:13;;;;;;;1.40;1.30;;;10.00;1.00;;;;;;5091985;28;20408;-79
2022/09/28 07:23:40;;;;;;;2.53;1.70;;;10.00;1.00;;;;;;5083460;28;20431;-79
2022/09/28 07:26:06;;;;;;;4.13;1.63;;;10.10;1.00;;;;;;5076099;28;20198;-78
2022/09/28 07:28:32;;;;;;;1.10;1.10;;;10.20;1.00;;;;;;5075948;28;20453;-80
2022/09/28 07:30:58;;;;;;;1.20;1.10;;;10.40;1.00;;;;;;5075233;28;20647;-79
2022/09/28 07:33:26;;;;;;;3.60;0.93;;;10.50;1.00;;;;;;5075285;28;20443;-79
2022/09/28 07:35:54;;;;;;;3.43;0.87;;;10.60;1.00;;;;;;5074687;28;20190;-78
2022/09/28 07:38:20;;;;;;;2.03;0.90;;;10.90;1.00;;;;;;5079656;28;20433;-73
2022/09/28 07:43:31;;;;;;;1.53;1.17;;;11.40;1.00;;;;;;5087169;28;20451;-88
2022/09/28 07:46:10;;;;;;;1.43;1.00;;;11.30;1.00;;;;;;5086538;28;20457;-88
2022/09/28 07:48:50;;;;;;;5.33;0.80;;;11.40;1.00;;;;;;5083488;28;20438;-80
2022/09/28 07:51:20;;;;;;;0.80;0.80;;;11.50;1.00;;;;;;5076111;28;20769;-83
2022/09/28 07:53:46;;;;;;;3.50;0.97;;;11.80;1.00;;;;;;5082507;28;20408;-78
2022/09/28 07:56:16;;;;;;;5.87;1.63;;;11.90;1.00;;;;;;5083179;28;20444;-82
2022/09/28 07:58:50;;;;;;;1.00;1.00;;;12.00;1.00;;;;;;5083239;28;20412;-83
2022/09/28 08:01:24;;;;;;;1.17;1.00;;;12.10;1.00;;;;;;5093529;28;20428;-77
2022/09/28 08:03:53;;;;;;;1.33;1.03;;;12.10;1.00;;;;;;5075196;28;20757;-76
2022/09/28 08:06:19;;;;;;;0.87;0.87;;;12.10;1.00;;;;;;5087292;28;20428;-75
2022/09/28 08:08:44;;;;;;;1.07;1.07;;;12.30;1.00;;;;;;5083044;28;20494;-75
2022/09/28 08:11:16;;;;;;;2.80;1.30;;;12.20;1.00;;;;;;5089310;28;20201;-73
2022/09/28 08:13:44;;;;;;;1.83;1.20;;;12.30;1.00;;;;;;5085447;28;20170;-72
2022/09/28 08:16:10;;;;;;;3.23;1.00;;;12.30;1.00;;;;;;5078975;28;20519;-83
2022/09/28 08:18:42;;;;;;;1.30;1.00;;;12.40;1.00;;;;;;5076005;28;20892;-81
2022/09/28 08:24:07;;;;;;;1.13;1.03;;;12.30;1.00;;;;;;5081585;28;20499;-82
2022/09/28 08:26:33;;;;;;;1.43;0.90;;;12.20;1.00;;;;;;5076715;28;20457;-79
2022/09/28 08:28:58;;;;;;;13.90;1.07;;;12.20;1.00;;;;;;5082884;28;20171;-79
2022/09/28 08:31:24;;;;;;;0.90;0.80;;;12.10;1.00;;;;;;5085972;28;20178;-78
2022/09/28 08:33:52;;;;;;;3.53;1.00;;;12.30;1.00;;;;;;5079624;28;20236;-78
2022/09/28 08:36:18;;;;;;;2.87;0.93;;;12.30;1.00;;;;;;5082070;28;20586;-79
2022/09/28 08:38:43;;;;;;;1.27;0.97;;;12.50;1.00;;;;;;5081074;28;20458;-79
2022/09/28 08:41:24;;;;;;;1.20;1.10;;;12.70;1.00;;;;;;5076577;28;20183;-79
2022/09/28 08:44:09;;;;;;;4.70;0.70;;;13.00;1.00;;;;;;5085811;28;20183;-80
2022/09/28 08:46:52;;;;;;;1.60;1.20;;;13.00;1.00;;;;;;5081045;28;20437;-83
2022/09/28 08:49:43;;;;;;;3.33;0.90;;;13.30;1.00;;;;;;5080112;28;20425;-85
2022/09/28 08:52:29;;;;;;;2.30;0.90;;;13.50;1.00;;;;;;5076666;28;20500;-84
2022/09/28 08:55:38;;;;;;;2.07;0.90;;;13.50;1.00;;;;;;5092860;28;20436;-84
2022/09/28 08:58:24;;;;;;;1.00;0.70;;;13.50;1.00;;;;;;5066278;28;20428;-82
2022/09/28 09:00:51;;;;;;;3.07;0.97;;;13.60;1.00;;;;;;5086554;28;20863;-81
2022/09/28 09:03:24;;;;;;;0.80;0.70;;;13.50;1.00;;;;;;5083898;28;20432;-82
2022/09/28 09:06:18;;;;;;;1.43;0.60;;;13.50;1.00;;;;;;5085773;28;21001;-82
2022/09/28 09:09:20;;;;;;;3.17;0.60;;;13.60;1.00;;;;;;5082175;28;20440;-82
2022/09/28 09:11:59;;;;;;;0.50;0.50;;;13.60;1.00;;;;;;5082394;28;20497;-81
2022/09/28 09:14:49;;;;;;;1.07;0.80;;;13.80;1.00;;;;;;5086242;28;20976;-79
2022/09/28 09:17:43;;;;;;;1.47;1.23;;;13.80;1.00;;;;;;5087547;28;20433;-79
2022/09/28 09:20:32;;;;;;;1.23;0.70;;;13.90;1.00;;;;;;5080435;28;20482;-79
2022/09/28 09:23:34;;;;;;;0.87;0.60;;;13.60;1.00;;;;;;5079507;28;20420;-79
2022/09/28 09:26:20;;;;;;;3.17;0.70;;;13.50;1.00;;;;;;4995839;28;20974;-79
2022/09/28 09:29:11;;;;;;;1.33;0.70;;;13.30;1.00;;;;;;5012935;28;20509;-82
2022/09/28 09:32:03;;;;;;;2.67;0.63;;;13.30;1.00;;;;;;5005121;28;20490;-81
2022/09/28 09:34:55;;;;;;;3.83;0.70;;;13.40;1.00;;;;;;4995653;28;20440;-81
2022/09/28 09:37:48;;;;;;;2.97;0.53;;;13.40;1.00;;;;;;5012378;28;20459;-82
2022/09/28 09:44:14;;;;;;;2.40;0.60;;;13.40;1.00;;;;;;5005939;28;20977;-79
2022/09/28 09:46:46;;;;;;;1.13;0.60;;;13.60;1.00;;;;;;4963034;28;20446;-82
2022/09/28 09:49:26;;;;;;;6.30;0.70;;;13.80;1.00;;;;;;4968046;28;20568;-82
2022/09/28 09:52:48;;;;;;;3.83;0.70;;;14.00;1.00;;;;;;4957229;28;20961;-84
2022/09/28 09:55:25;;;;;;;0.60;0.53;;;14.00;1.00;;;;;;4964277;28;20466;-83
2022/09/28 09:58:20;;;;;;;1.90;0.70;;;14.20;1.00;;;;;;4965283;28;20445;-78
2022/09/28 10:00:51;;;;;;;0.80;0.60;;;14.50;1.00;;;;;;4965214;28;21000;-78
2022/09/28 10:03:29;;;;;;;1.13;0.80;;;14.90;1.00;;;;;;4997537;28;20453;-78
2022/09/28 10:06:08;;;;;;;1.93;0.70;;;15.30;1.00;;;;;;5044704;28;20498;-78
2022/09/28 10:08:46;;;;;;;0.90;0.70;;;15.30;1.00;;;;;;5034276;28;20470;-79
2022/09/28 10:11:22;;;;;;;0.80;0.60;;;15.20;1.00;;;;;;5031221;28;20510;-78
2022/09/28 10:14:11;;;;;;;3.70;0.60;;;14.80;1.00;;;;;;5032029;28;20435;-81
2022/09/28 10:16:46;;;;;;;1.00;0.70;;;14.60;1.00;;;;;;5030131;28;20465;-81
2022/09/28 10:19:24;;;;;;;1.33;0.70;;;14.40;1.00;;;;;;5031419;28;20455;-79
2022/09/28 10:22:10;;;;;;;1.43;0.63;;;14.40;1.00;;;;;;5030399;28;20522;-79
2022/09/28 10:24:44;;;;;;;2.33;0.87;;;14.30;1.00;;;;;;5076108;28;20508;-80
2022/09/28 10:27:32;;;;;;;1.37;0.70;;;14.20;1.00;;;;;;5085780;28;20463;-80
2022/09/28 10:30:15;;;;;;;0.63;0.63;;;14.20;1.00;;;;;;5075587;28;20508;-78
2022/09/28 10:32:52;;;;;;;1.77;0.80;;;14.20;1.00;;;;;;5081012;28;20444;-78
2022/09/28 10:35:23;;;;;;;1.70;0.60;;;14.40;1.00;;;;;;5075451;28;20444;-78
2022/09/28 10:38:14;;;;;;;2.80;0.70;;;14.70;1.00;;;;;;5075769;28;20436;-78
2022/09/28 10:40:53;;;;;;;0.60;0.60;;;14.90;1.00;;;;;;5080834;28;20423;-78
2022/09/28 10:43:34;;;;;;;0.90;0.50;;;14.90;1.00;;;;;;5074775;28;20435;-79
2022/09/28 10:46:22;;;;;;;0.80;0.60;;;15.00;1.00;;;;;;5076053;28;20461;-80
2022/09/28 10:49:20;;;;;;;0.50;0.50;;;15.00;1.00;;;;;;5073356;28;20395;-80
2022/09/28 10:51:57;;;;;;;1.23;0.63;;;14.80;1.00;;;;;;5080314;28;20923;-80
2022/09/28 10:54:28;;;;;;;0.63;0.50;;;14.90;1.00;;;;;;5078878;28;20460;-80
2022/09/28 10:57:00;;;;;;;3.80;0.80;;;15.10;1.00;;;;;;5073424;28;20454;-80
2022/09/28 10:59:29;;;;;;;1.17;0.60;;;15.40;1.00;;;;;;5079622;28;20519;-79
2022/09/28 11:02:01;;;;;;;0.80;0.80;;;15.50;1.00;;;;;;5078234;28;20437;-78
2022/09/28 11:04:30;;;;;;;2.07;0.63;;;15.50;1.00;;;;;;5072768;28;20489;-78
2022/09/28 11:07:00;;;;;;;3.10;1.00;;;15.50;1.00;;;;;;5079047;28;20900;-79
2022/09/28 11:09:41;;;;;;;4.37;0.60;;;15.60;1.00;;;;;;5072908;28;20393;-79
2022/09/28 11:12:25;;;;;;;3.80;0.60;;;15.50;1.00;;;;;;5083535;28;20435;-79
2022/09/28 11:15:30;;;;;;;1.37;0.60;;;15.50;1.00;;;;;;5073504;28;20456;-81
2022/09/28 11:21:54;;;;;;;2.20;0.60;;;15.70;1.00;;;;;;5087591;28;20967;-82
2022/09/28 11:24:24;;;;;;;0.93;0.60;;;15.70;1.00;;;;;;5077083;28;20438;-83
2022/09/28 11:27:01;;;;;;;7.90;0.80;;;15.60;1.00;;;;;;5098621;28;20436;-83
2022/09/28 11:29:49;;;;;;;0.63;0.63;;;15.60;1.00;;;;;;5082501;28;20468;-79
2022/09/28 11:32:38;;;;;;;2.20;0.60;;;15.40;1.00;;;;;;5071695;28;20810;-79
2022/09/28 11:35:04;;;;;;;2.10;0.60;;;15.40;1.00;;;;;;5074251;28;20495;-79
2022/09/28 11:37:41;;;;;;;0.80;0.60;;;15.50;1.00;;;;;;5072997;28;20390;-79
2022/09/28 11:40:26;;;;;;;1.70;0.60;;;15.60;1.00;;;;;;5074300;28;20413;-79
2022/09/28 11:43:28;;;;;;;0.70;0.70;;;15.80;1.00;;;;;;5078789;28;20547;-79
2022/09/28 11:46:31;;;;;;;2.93;0.60;;;16.10;1.00;;;;;;5079936;28;20494;-79
2022/09/28 11:49:20;;;;;;;1.57;0.60;;;16.10;1.00;;;;;;5081313;28;20780;-79
2022/09/28 11:51:51;;;;;;;0.93;0.70;;;15.70;1.00;;;;;;5092369;28;20870;-79
2022/09/28 11:54:46;;;;;;;2.00;0.60;;;15.70;1.00;;;;;;5075796;28;20409;-80
2022/09/28 11:57:20;;;;;;;7.73;0.70;;;15.80;1.00;;;;;;5085299;28;20421;-79
2022/09/28 12:00:09;;;;;;;1.23;0.60;;;15.90;1.00;;;;;;5081145;28;20430;-79
2022/09/28 12:03:00;;;;;;;3.37;0.70;;;16.10;1.00;;;;;;5081353;28;20436;-79
2022/09/28 12:05:50;;;;;;;1.20;0.63;;;16.10;1.00;;;;;;5086063;28;20941;-79
2022/09/28 12:08:24;;;;;;;1.73;0.70;;;16.00;1.00;;;;;;5089741;28;20504;-79
2022/09/28 12:11:20;;;;;;;2.67;0.60;;;15.90;1.00;;;;;;5076079;28;20789;-79
2022/09/28 12:13:51;;;;;;;1.27;0.60;;;16.10;1.00;;;;;;5082813;28;20425;-79
2022/09/28 12:16:55;;;;;;;1.67;0.77;;;16.00;1.00;;;;;;5075901;28;20394;-79
2022/09/28 12:19:46;;;;;;;4.13;1.03;;;15.80;1.00;;;;;;5084024;28;20408;-79
2022/09/28 12:22:32;;;;;;;4.03;0.60;;;15.90;1.00;;;;;;5088692;28;20420;-79
2022/09/28 12:25:02;;;;;;;0.60;0.60;;;16.30;1.00;;;;;;5080537;28;20520;-79
2022/09/28 12:27:54;;;;;;;1.13;0.67;;;16.20;1.00;;;;;;5086270;28;21011;-79
2022/09/28 12:30:36;;;;;;;1.33;0.50;;;16.30;1.00;;;;;;5092257;28;20392;-83
2022/09/28 12:33:18;;;;;;;2.97;0.73;;;16.40;1.00;;;;;;5075634;28;20365;-82
2022/09/28 12:35:56;;;;;;;2.50;0.70;;;16.40;1.00;;;;;;5078888;28;20806;-83
2022/09/28 12:38:40;;;;;;;4.20;0.77;;;16.40;1.00;;;;;;5088783;28;20395;-83
2022/09/28 12:41:06;;;;;;;3.00;0.90;;;16.70;1.00;;;;;;5087217;28;20462;-83
2022/09/28 12:43:48;;;;;;;1.73;0.60;;;16.70;1.00;;;;;;5084680;28;20518;-82
2022/09/28 12:46:56;;;;;;;0.70;0.70;;;16.70;1.00;;;;;;5090957;28;20452;-82
2022/09/28 12:49:55;;;;;;;0.50;0.50;;;16.60;1.00;;;;;;5082239;28;20874;-82
2022/09/28 12:52:48;;;;;;;0.60;0.60;;;16.40;1.00;;;;;;5084084;28;20444;-82
2022/09/28 12:59:15;;;;;;;1.07;0.60;;;16.10;1.00;;;;;;5074372;28;20403;-82
2022/09/28 13:02:18;;;;;;;0.60;0.60;;;15.80;1.00;;;;;;5074555;28;20383;-79
2022/09/28 13:05:02;;;;;;;1.10;0.60;;;15.80;1.00;;;;;;5073054;28;20460;-80
2022/09/28 13:07:59;;;;;;;1.13;0.60;;;15.90;1.00;;;;;;5078923;28;20808;-80
2022/09/28 13:11:15;;;;;;;2.70;0.70;;;16.00;1.00;;;;;;5071104;28;20478;-81
2022/09/28 13:13:52;;;;;;;0.60;0.60;;;16.10;1.00;;;;;;5052108;28;20403;-81
2022/09/28 13:17:06;;;;;;;1.93;0.63;;;16.00;1.00;;;;;;5077733;28;20410;-77
2022/09/28 13:19:57;;;;;;;7.13;0.60;;;15.90;1.00;;;;;;5074367;28;20432;-77
2022/09/28 13:22:48;;;;;;;0.90;0.60;;;15.80;1.00;;;;;;5074918;28;20429;-79
2022/09/28 13:25:20;;;;;;;0.60;0.50;;;15.80;1.00;;;;;;5082353;28;20901;-78
2022/09/28 13:28:05;;;;;;;1.43;0.67;;;15.90;1.00;;;;;;5078078;28;20773;-78
2022/09/28 13:30:39;;;;;;;0.70;0.70;;;16.20;1.00;;;;;;5074556;28;20424;-78
2022/09/28 13:33:09;;;;;;;3.70;0.60;;;16.50;1.00;;;;;;5073979;28;20489;-78
2022/09/28 13:35:43;;;;;;;1.80;0.70;;;16.60;1.00;;;;;;5077877;28;20550;-78
2022/09/28 13:38:17;;;;;;;1.17;0.73;;;16.60;1.00;;;;;;5088828;28;20415;-79
2022/09/28 13:41:08;;;;;;;1.80;0.50;;;16.20;1.00;;;;;;5085501;28;20409;-78
2022/09/28 13:43:53;;;;;;;0.50;0.50;;;16.30;1.00;;;;;;5012391;28;20441;-78
2022/09/28 13:46:42;;;;;;;0.70;0.60;;;16.20;1.00;;;;;;5011739;28;20418;-80
2022/09/28 13:49:31;;;;;;;3.23;0.80;;;16.30;1.00;;;;;;5003614;28;20387;-79
2022/09/28 13:52:15;;;;;;;1.77;0.60;;;16.40;1.00;;;;;;4977578;28;20442;-79
2022/09/28 13:55:01;;;;;;;0.60;0.60;;;16.30;1.00;;;;;;5012094;28;20424;-79
2022/09/28 13:57:40;;;;;;;1.93;0.90;;;16.30;1.00;;;;;;4994719;28;20414;-79
2022/09/28 14:00:27;;;;;;;0.80;0.53;;;16.30;1.00;;;;;;4984426;28;20432;-76
2022/09/28 14:03:20;;;;;;;1.00;0.63;;;16.60;1.00;;;;;;5016857;28;20746;-76
2022/09/28 14:05:51;;;;;;;1.80;0.60;;;16.60;1.00;;;;;;5016669;28;20955;-75
2022/09/28 14:08:27;;;;;;;1.30;0.70;;;16.60;1.00;;;;;;5007183;28;20895;-79
2022/09/28 14:11:30;;;;;;;1.63;0.70;;;16.80;1.00;;;;;;5003683;28;20427;-78
2022/09/28 14:14:07;;;;;;;0.73;0.70;;;16.80;1.00;;;;;;5015401;28;20405;-78
2022/09/28 14:17:14;;;;;;;1.40;0.90;;;16.60;1.00;;;;;;5030415;28;20397;-79
2022/09/28 14:19:43;;;;;;;0.53;0.53;;;16.90;1.00;;;;;;4954978;28;20426;-78
2022/09/28 14:22:29;;;;;;;1.30;0.60;;;17.00;1.00;;;;;;5041566;28;20394;-78
2022/09/28 14:25:18;;;;;;;2.80;0.83;;;17.00;1.00;;;;;;5047715;28;20889;-79
2022/09/28 14:28:11;;;;;;;2.60;0.90;;;17.10;1.00;;;;;;5032752;28;20400;-76
2022/09/28 14:30:48;;;;;;;7.17;0.70;;;17.00;1.00;;;;;;5037908;28;20508;-78
2022/09/28 14:33:31;;;;;;;0.63;0.63;;;16.90;1.00;;;;;;5036837;28;20958;-77
2022/09/28 14:42:33;;;;;;;1.03;0.60;;;16.40;1.00;;;;;;4991836;28;20382;-80
2022/09/28 14:45:05;;;;;;;0.80;0.73;;;16.50;1.00;;;;;;4991797;28;20442;-80
2022/09/28 14:48:03;;;;;;;3.67;0.70;;;16.50;1.00;;;;;;4987616;28;20198;-80
2022/09/28 14:57:31;;;;;;;1.67;0.73;;;16.10;1.00;;;;;;5018369;28;20386;-83
2022/09/28 14:59:59;;;;;;;3.17;0.70;;;15.90;1.00;;;;;;5016992;28;20970;-84
2022/09/28 15:02:31;;;;;;;1.53;1.00;;;15.70;1.00;;;;;;5019587;28;20485;-91
2022/09/28 15:05:21;;;;;;;1.67;0.70;;;15.50;1.00;;;;;;5022955;28;21058;-83
2022/09/28 15:08:08;;;;;;;1.23;0.60;;;15.30;1.00;;;;;;5019633;28;20527;-85
2022/09/28 15:11:00;;;;;;;1.47;0.70;;;15.50;1.00;;;;;;5014207;28;20440;-86
2022/09/28 15:13:39;;;;;;;0.60;0.60;;;15.80;1.00;;;;;;5056430;28;20910;-88
2022/09/28 15:23:30;;;;;;;2.70;0.77;;;15.80;1.00;;;;;;5090885;28;20421;-88
2022/09/28 15:39:37;;;;;;;3.13;0.80;;;15.90;1.00;;;;;;5092879;28;20961;-85
2022/09/28 15:42:36;;;;;;;2.50;0.80;;;15.80;1.00;;;;;;5080323;28;20417;-85
2022/09/28 15:45:30;;;;;;;0.77;0.70;;;15.70;1.00;;;;;;5092976;28;20459;-85
2022/09/28 15:51:20;;;;;;;1.53;0.67;;;15.60;1.00;;;;;;5084180;28;20475;-85
2022/09/28 15:54:11;;;;;;;1.90;0.60;;;15.60;1.00;;;;;;5080952;28;20420;-85
2022/09/28 15:59:59;;;;;;;1.00;0.77;;;15.50;1.00;;;;;;5076128;28;20389;-85
2022/09/28 16:03:08;;;;;;;3.70;0.80;;;15.50;1.00;;;;;;5086354;28;20772;-86